sensor_id;sensor_type;location;lat;lon;timestamp;temperature;humidity
23755;DHT22;12057;52.042;6.830;2022-09-21T00:00:09;7.20;99.90
23755;DHT22;12057;52.042;6.830;2022-09-21T00:05:10;7.10;99.90
23755;DHT22;12057;52.042;6.830;2022-09-21T00:10:11;7.20;99.90
23755;DHT22;12057;52.042;6.830;2022-09-21T00:15:12;7.20;99.90
23755;DHT22;12057;52.042;6.830;2022-09-21T00:20:13;7.10;99.90
23755;DHT22;12057;52.042;6.830;2022-09-21T00:25:14;7.00;99.90
23755;DHT22;12057;52.042;6.830;2022-09-21T00:30:14;7.00;99.90
23755;DHT22;12057;52.042;6.830;2022-09-21T00:35:15;7.00;99.90
23755;DHT22;12057;52.042;6.830;2022-09-21T00:40:16;6.90;99.90
23755;DHT22;12057;52.042;6.830;2022-09-21T00:45:16;6.80;99.90
23755;DHT22;12057;52.042;6.830;2022-09-21T00:50:23;6.70;99.90
23755;DHT22;12057;52.042;6.830;2022-09-21T00:55:28;6.70;99.90
23755;DHT22;12057;52.042;6.830;2022-09-21T01:00:30;6.70;99.90
23755;DHT22;12057;52.042;6.830;2022-09-21T01:05:31;6.80;99.90
23755;DHT22;12057;52.042;6.830;2022-09-21T01:10:54;6.70;99.90
23755;DHT22;12057;52.042;6.830;2022-09-21T01:31:06;6.40;99.90
23755;DHT22;12057;52.042;6.830;2022-09-21T01:36:12;6.50;99.90
23755;DHT22;12057;52.042;6.830;2022-09-21T01:41:14;6.50;99.90
23755;DHT22;12057;52.042;6.830;2022-09-21T01:46:16;6.50;99.90
23755;DHT22;12057;52.042;6.830;2022-09-21T01:51:18;6.50;99.90
23755;DHT22;12057;52.042;6.830;2022-09-21T01:56:24;6.40;99.90
23755;DHT22;12057;52.042;6.830;2022-09-21T02:01:27;6.40;99.90
23755;DHT22;12057;52.042;6.830;2022-09-21T02:06:29;6.30;99.90
23755;DHT22;12057;52.042;6.830;2022-09-21T02:11:31;6.30;99.90
23755;DHT22;12057;52.042;6.830;2022-09-21T02:21:57;6.20;99.90
23755;DHT22;12057;52.042;6.830;2022-09-21T02:37:32;6.10;99.90
23755;DHT22;12057;52.042;6.830;2022-09-21T02:42:36;6.00;99.90
23755;DHT22;12057;52.042;6.830;2022-09-21T02:47:42;6.00;99.90
23755;DHT22;12057;52.042;6.830;2022-09-21T02:52:44;5.90;99.90
23755;DHT22;12057;52.042;6.830;2022-09-21T02:57:45;5.90;99.90
23755;DHT22;12057;52.042;6.830;2022-09-21T03:02:47;5.90;99.90
23755;DHT22;12057;52.042;6.830;2022-09-21T03:07:54;5.90;99.90
23755;DHT22;12057;52.042;6.830;2022-09-21T03:12:58;5.90;99.90
23755;DHT22;12057;52.042;6.830;2022-09-21T03:18:00;5.90;99.90
23755;DHT22;12057;52.042;6.830;2022-09-21T03:23:02;5.80;99.90
23755;DHT22;12057;52.042;6.830;2022-09-21T03:28:03;5.80;99.90
23755;DHT22;12057;52.042;6.830;2022-09-21T03:33:03;5.80;99.90
23755;DHT22;12057;52.042;6.830;2022-09-21T03:38:05;5.70;99.90
23755;DHT22;12057;52.042;6.830;2022-09-21T03:43:06;5.70;99.90
23755;DHT22;12057;52.042;6.830;2022-09-21T03:48:06;5.70;99.90
23755;DHT22;12057;52.042;6.830;2022-09-21T03:53:07;5.60;99.90
23755;DHT22;12057;52.042;6.830;2022-09-21T03:58:08;5.60;99.90
23755;DHT22;12057;52.042;6.830;2022-09-21T04:03:09;5.60;99.90
23755;DHT22;12057;52.042;6.830;2022-09-21T04:08:10;5.50;99.90
23755;DHT22;12057;52.042;6.830;2022-09-21T04:13:11;5.40;99.90
23755;DHT22;12057;52.042;6.830;2022-09-21T04:18:12;5.40;99.90
23755;DHT22;12057;52.042;6.830;2022-09-21T04:23:13;5.30;99.90
23755;DHT22;12057;52.042;6.830;2022-09-21T04:28:14;5.30;99.90
23755;DHT22;12057;52.042;6.830;2022-09-21T04:33:15;5.20;99.90
23755;DHT22;12057;52.042;6.830;2022-09-21T04:38:15;5.20;99.90
23755;DHT22;12057;52.042;6.830;2022-09-21T04:43:16;5.20;99.90
23755;DHT22;12057;52.042;6.830;2022-09-21T04:48:16;5.20;99.90
23755;DHT22;12057;52.042;6.830;2022-09-21T04:53:17;5.10;99.90
23755;DHT22;12057;52.042;6.830;2022-09-21T04:58:18;5.10;99.90
23755;DHT22;12057;52.042;6.830;2022-09-21T05:03:18;5.10;99.90
23755;DHT22;12057;52.042;6.830;2022-09-21T05:08:19;5.10;99.90
23755;DHT22;12057;52.042;6.830;2022-09-21T05:13:39;5.10;99.90
23755;DHT22;12057;52.042;6.830;2022-09-21T05:18:39;5.00;99.90
23755;DHT22;12057;52.042;6.830;2022-09-21T05:23:40;5.00;99.90
23755;DHT22;12057;52.042;6.830;2022-09-21T05:28:41;5.00;99.90
23755;DHT22;12057;52.042;6.830;2022-09-21T05:33:43;5.00;99.90
23755;DHT22;12057;52.042;6.830;2022-09-21T05:38:47;5.00;99.90
23755;DHT22;12057;52.042;6.830;2022-09-21T05:43:47;5.00;99.90
23755;DHT22;12057;52.042;6.830;2022-09-21T05:48:53;5.00;99.90
23755;DHT22;12057;52.042;6.830;2022-09-21T05:54:01;5.00;99.90
23755;DHT22;12057;52.042;6.830;2022-09-21T06:04:09;5.10;99.90
23755;DHT22;12057;52.042;6.830;2022-09-21T06:09:11;5.10;99.90
23755;DHT22;12057;52.042;6.830;2022-09-21T06:14:12;5.20;99.90
23755;DHT22;12057;52.042;6.830;2022-09-21T06:19:12;5.30;99.90
23755;DHT22;12057;52.042;6.830;2022-09-21T06:24:13;5.30;99.90
23755;DHT22;12057;52.042;6.830;2022-09-21T06:29:13;5.40;99.90
23755;DHT22;12057;52.042;6.830;2022-09-21T06:34:14;5.60;99.90
23755;DHT22;12057;52.042;6.830;2022-09-21T06:39:15;5.80;99.90
23755;DHT22;12057;52.042;6.830;2022-09-21T06:44:15;6.00;99.90
23755;DHT22;12057;52.042;6.830;2022-09-21T06:49:16;6.40;99.90
23755;DHT22;12057;52.042;6.830;2022-09-21T06:54:16;6.70;99.90
23755;DHT22;12057;52.042;6.830;2022-09-21T06:59:20;7.00;99.90
23755;DHT22;12057;52.042;6.830;2022-09-21T07:04:21;7.20;99.90
23755;DHT22;12057;52.042;6.830;2022-09-21T07:09:23;7.60;99.90
23755;DHT22;12057;52.042;6.830;2022-09-21T07:14:24;8.00;99.90
23755;DHT22;12057;52.042;6.830;2022-09-21T07:19:25;8.30;99.90
23755;DHT22;12057;52.042;6.830;2022-09-21T07:24:26;8.60;99.90
23755;DHT22;12057;52.042;6.830;2022-09-21T07:29:26;8.90;99.90
23755;DHT22;12057;52.042;6.830;2022-09-21T07:34:27;9.30;99.90
23755;DHT22;12057;52.042;6.830;2022-09-21T07:39:28;9.70;99.90
23755;DHT22;12057;52.042;6.830;2022-09-21T07:44:28;10.00;99.90
23755;DHT22;12057;52.042;6.830;2022-09-21T07:49:29;10.40;99.90
23755;DHT22;12057;52.042;6.830;2022-09-21T07:54:30;10.70;99.90
23755;DHT22;12057;52.042;6.830;2022-09-21T07:59:31;11.10;99.90
23755;DHT22;12057;52.042;6.830;2022-09-21T08:04:32;11.50;99.90
23755;DHT22;12057;52.042;6.830;2022-09-21T08:09:33;11.80;99.90
23755;DHT22;12057;52.042;6.830;2022-09-21T08:14:34;12.20;99.90
23755;DHT22;12057;52.042;6.830;2022-09-21T08:19:35;12.50;99.90
23755;DHT22;12057;52.042;6.830;2022-09-21T08:24:35;12.80;99.90
23755;DHT22;12057;52.042;6.830;2022-09-21T08:29:39;13.10;99.90
23755;DHT22;12057;52.042;6.830;2022-09-21T08:34:42;13.40;99.90
23755;DHT22;12057;52.042;6.830;2022-09-21T08:39:43;13.70;99.90
23755;DHT22;12057;52.042;6.830;2022-09-21T08:49:52;14.20;99.90
23755;DHT22;12057;52.042;6.830;2022-09-21T08:54:58;14.50;99.90
23755;DHT22;12057;52.042;6.830;2022-09-21T09:00:01;14.70;99.90
23755;DHT22;12057;52.042;6.830;2022-09-21T09:10:31;15.50;99.90
23755;DHT22;12057;52.042;6.830;2022-09-21T09:20:38;15.70;99.90
23755;DHT22;12057;52.042;6.830;2022-09-21T09:25:40;15.90;99.90
23755;DHT22;12057;52.042;6.830;2022-09-21T09:30:41;16.00;99.90
23755;DHT22;12057;52.042;6.830;2022-09-21T09:35:51;16.40;99.90
23755;DHT22;12057;52.042;6.830;2022-09-21T09:51:28;17.10;99.90
23755;DHT22;12057;52.042;6.830;2022-09-21T09:56:30;17.40;99.90
23755;DHT22;12057;52.042;6.830;2022-09-21T10:06:43;18.00;99.90
23755;DHT22;12057;52.042;6.830;2022-09-21T10:11:44;18.30;99.90
23755;DHT22;12057;52.042;6.830;2022-09-21T10:16:46;18.40;99.90
23755;DHT22;12057;52.042;6.830;2022-09-21T10:21:47;18.60;99.90
23755;DHT22;12057;52.042;6.830;2022-09-21T10:26:50;18.70;99.90
23755;DHT22;12057;52.042;6.830;2022-09-21T10:36:56;19.10;99.90
23755;DHT22;12057;52.042;6.830;2022-09-21T10:41:59;19.20;99.90
23755;DHT22;12057;52.042;6.830;2022-09-21T10:47:01;19.10;99.90
23755;DHT22;12057;52.042;6.830;2022-09-21T10:52:03;18.60;99.90
23755;DHT22;12057;52.042;6.830;2022-09-21T10:57:06;18.10;99.90
23755;DHT22;12057;52.042;6.830;2022-09-21T11:02:23;18.10;99.90
23755;DHT22;12057;52.042;6.830;2022-09-21T11:17:34;19.50;99.90
23755;DHT22;12057;52.042;6.830;2022-09-21T11:27:53;20.30;99.90
23755;DHT22;12057;52.042;6.830;2022-09-21T11:48:38;19.90;99.90
23755;DHT22;12057;52.042;6.830;2022-09-21T12:04:10;20.30;99.90
23755;DHT22;12057;52.042;6.830;2022-09-21T12:09:38;20.30;97.70
23755;DHT22;12057;52.042;6.830;2022-09-21T12:25:10;20.80;99.30
23755;DHT22;12057;52.042;6.830;2022-09-21T12:30:13;20.90;96.40
23755;DHT22;12057;52.042;6.830;2022-09-21T12:35:17;21.10;96.40
23755;DHT22;12057;52.042;6.830;2022-09-21T12:40:20;20.80;98.20
23755;DHT22;12057;52.042;6.830;2022-09-21T12:46:01;20.20;96.30
23755;DHT22;12057;52.042;6.830;2022-09-21T12:50:55;20.20;97.60
23755;DHT22;12057;52.042;6.830;2022-09-21T12:56:02;20.70;98.10
23755;DHT22;12057;52.042;6.830;2022-09-21T13:01:08;20.90;96.20
23755;DHT22;12057;52.042;6.830;2022-09-21T13:06:46;20.60;95.60
23755;DHT22;12057;52.042;6.830;2022-09-21T13:11:50;20.50;96.00
23755;DHT22;12057;52.042;6.830;2022-09-21T13:16:54;20.80;98.30
23755;DHT22;12057;52.042;6.830;2022-09-21T13:27:19;20.40;97.80
23755;DHT22;12057;52.042;6.830;2022-09-21T13:32:20;20.40;96.10
23755;DHT22;12057;52.042;6.830;2022-09-21T13:37:25;20.50;97.10
23755;DHT22;12057;52.042;6.830;2022-09-21T13:47:29;20.60;94.50
23755;DHT22;12057;52.042;6.830;2022-09-21T13:52:35;20.40;94.70
23755;DHT22;12057;52.042;6.830;2022-09-21T13:57:40;20.40;93.30
23755;DHT22;12057;52.042;6.830;2022-09-21T14:07:53;20.30;95.80
23755;DHT22;12057;52.042;6.830;2022-09-21T14:12:54;20.20;92.60
23755;DHT22;12057;52.042;6.830;2022-09-21T14:28:15;19.50;94.30
23755;DHT22;12057;52.042;6.830;2022-09-21T14:38:25;19.30;93.70
23755;DHT22;12057;52.042;6.830;2022-09-21T14:43:28;18.80;95.20
23755;DHT22;12057;52.042;6.830;2022-09-21T15:03:46;18.00;98.70
23755;DHT22;12057;52.042;6.830;2022-09-21T15:09:03;17.80;98.60
23755;DHT22;12057;52.042;6.830;2022-09-21T15:14:27;17.50;97.80
23755;DHT22;12057;52.042;6.830;2022-09-21T15:19:34;17.40;97.70
23755;DHT22;12057;52.042;6.830;2022-09-21T15:24:46;17.30;98.10
23755;DHT22;12057;52.042;6.830;2022-09-21T15:29:48;17.30;98.10
23755;DHT22;12057;52.042;6.830;2022-09-21T15:35:06;17.20;96.50
23755;DHT22;12057;52.042;6.830;2022-09-21T15:40:16;17.30;97.40
23755;DHT22;12057;52.042;6.830;2022-09-21T15:45:17;17.20;96.90
23755;DHT22;12057;52.042;6.830;2022-09-21T15:50:18;17.20;96.90
23755;DHT22;12057;52.042;6.830;2022-09-21T15:55:20;17.10;98.70
23755;DHT22;12057;52.042;6.830;2022-09-21T16:00:25;17.00;97.70
23755;DHT22;12057;52.042;6.830;2022-09-21T16:05:27;16.90;97.90
23755;DHT22;12057;52.042;6.830;2022-09-21T16:15:29;16.70;99.10
23755;DHT22;12057;52.042;6.830;2022-09-21T16:20:37;16.60;99.20
23755;DHT22;12057;52.042;6.830;2022-09-21T16:25:38;16.40;99.30
23755;DHT22;12057;52.042;6.830;2022-09-21T16:30:41;16.30;99.90
23755;DHT22;12057;52.042;6.830;2022-09-21T16:35:42;16.20;99.90
23755;DHT22;12057;52.042;6.830;2022-09-21T16:40:42;16.10;99.90
23755;DHT22;12057;52.042;6.830;2022-09-21T16:45:45;16.10;99.80
23755;DHT22;12057;52.042;6.830;2022-09-21T16:50:46;15.90;99.90
23755;DHT22;12057;52.042;6.830;2022-09-21T16:55:53;15.80;99.90
23755;DHT22;12057;52.042;6.830;2022-09-21T17:00:54;15.70;99.90
23755;DHT22;12057;52.042;6.830;2022-09-21T17:05:54;15.50;99.90
23755;DHT22;12057;52.042;6.830;2022-09-21T17:10:56;15.30;99.90
23755;DHT22;12057;52.042;6.830;2022-09-21T17:15:57;15.10;99.90
23755;DHT22;12057;52.042;6.830;2022-09-21T17:20:57;14.70;99.90
23755;DHT22;12057;52.042;6.830;2022-09-21T17:25:58;14.50;99.90
23755;DHT22;12057;52.042;6.830;2022-09-21T17:30:59;14.30;99.90
23755;DHT22;12057;52.042;6.830;2022-09-21T17:36:00;14.10;99.90
23755;DHT22;12057;52.042;6.830;2022-09-21T17:41:01;13.80;99.90
23755;DHT22;12057;52.042;6.830;2022-09-21T17:51:35;13.60;99.90
23755;DHT22;12057;52.042;6.830;2022-09-21T17:57:00;13.40;99.90
23755;DHT22;12057;52.042;6.830;2022-09-21T18:02:23;13.10;99.90
23755;DHT22;12057;52.042;6.830;2022-09-21T18:07:24;12.90;99.90
23755;DHT22;12057;52.042;6.830;2022-09-21T18:12:39;12.70;99.90
23755;DHT22;12057;52.042;6.830;2022-09-21T18:17:51;12.60;99.90
23755;DHT22;12057;52.042;6.830;2022-09-21T18:27:58;12.30;99.90
23755;DHT22;12057;52.042;6.830;2022-09-21T18:53:44;11.80;99.90
23755;DHT22;12057;52.042;6.830;2022-09-21T18:58:49;11.60;99.90
23755;DHT22;12057;52.042;6.830;2022-09-21T19:03:51;11.50;99.90
23755;DHT22;12057;52.042;6.830;2022-09-21T19:33:56;11.20;99.90
23755;DHT22;12057;52.042;6.830;2022-09-21T19:38:57;11.20;99.90
23755;DHT22;12057;52.042;6.830;2022-09-21T19:44:04;11.20;99.90
23755;DHT22;12057;52.042;6.830;2022-09-21T19:49:13;10.90;99.90
23755;DHT22;12057;52.042;6.830;2022-09-21T19:54:18;10.70;99.90
23755;DHT22;12057;52.042;6.830;2022-09-21T19:59:38;10.70;99.90
23755;DHT22;12057;52.042;6.830;2022-09-21T20:04:53;10.70;99.90
23755;DHT22;12057;52.042;6.830;2022-09-21T20:15:18;10.50;99.90
23755;DHT22;12057;52.042;6.830;2022-09-21T20:20:25;10.50;99.90
23755;DHT22;12057;52.042;6.830;2022-09-21T20:25:31;10.50;99.90
23755;DHT22;12057;52.042;6.830;2022-09-21T20:30:34;10.50;99.90
23755;DHT22;12057;52.042;6.830;2022-09-21T20:35:35;10.60;99.90
23755;DHT22;12057;52.042;6.830;2022-09-21T20:40:35;10.40;99.90
23755;DHT22;12057;52.042;6.830;2022-09-21T20:45:37;10.40;99.90
23755;DHT22;12057;52.042;6.830;2022-09-21T20:50:45;10.40;99.90
23755;DHT22;12057;52.042;6.830;2022-09-21T20:55:51;10.30;99.90
23755;DHT22;12057;52.042;6.830;2022-09-21T21:00:52;10.20;99.90
23755;DHT22;12057;52.042;6.830;2022-09-21T21:05:53;10.10;99.90
23755;DHT22;12057;52.042;6.830;2022-09-21T21:11:05;10.10;99.90
23755;DHT22;12057;52.042;6.830;2022-09-21T21:16:06;10.10;99.90
23755;DHT22;12057;52.042;6.830;2022-09-21T21:21:07;10.00;99.90
23755;DHT22;12057;52.042;6.830;2022-09-21T21:26:07;9.80;99.90
23755;DHT22;12057;52.042;6.830;2022-09-21T21:31:08;9.80;99.90
23755;DHT22;12057;52.042;6.830;2022-09-21T21:36:11;9.70;99.90
23755;DHT22;12057;52.042;6.830;2022-09-21T21:41:14;9.60;99.90
23755;DHT22;12057;52.042;6.830;2022-09-21T21:46:15;9.60;99.90
23755;DHT22;12057;52.042;6.830;2022-09-21T21:51:15;9.60;99.90
23755;DHT22;12057;52.042;6.830;2022-09-21T21:56:16;9.50;99.90
23755;DHT22;12057;52.042;6.830;2022-09-21T22:01:20;9.40;99.90
23755;DHT22;12057;52.042;6.830;2022-09-21T22:06:21;9.40;99.90
23755;DHT22;12057;52.042;6.830;2022-09-21T22:11:23;9.30;99.90
23755;DHT22;12057;52.042;6.830;2022-09-21T22:16:25;9.30;99.90
23755;DHT22;12057;52.042;6.830;2022-09-21T22:21:28;9.20;99.90
23755;DHT22;12057;52.042;6.830;2022-09-21T22:26:29;9.10;99.90
23755;DHT22;12057;52.042;6.830;2022-09-21T22:31:33;9.10;99.90
23755;DHT22;12057;52.042;6.830;2022-09-21T22:36:35;9.00;99.90
23755;DHT22;12057;52.042;6.830;2022-09-21T22:41:37;8.90;99.90
23755;DHT22;12057;52.042;6.830;2022-09-21T22:46:38;8.90;99.90
23755;DHT22;12057;52.042;6.830;2022-09-21T22:51:38;8.90;99.90
23755;DHT22;12057;52.042;6.830;2022-09-21T22:56:39;8.90;99.90
23755;DHT22;12057;52.042;6.830;2022-09-21T23:01:40;8.80;99.90
23755;DHT22;12057;52.042;6.830;2022-09-21T23:06:41;8.80;99.90
23755;DHT22;12057;52.042;6.830;2022-09-21T23:11:43;8.70;99.90
23755;DHT22;12057;52.042;6.830;2022-09-21T23:16:46;8.60;99.90
23755;DHT22;12057;52.042;6.830;2022-09-21T23:21:48;8.50;99.90
23755;DHT22;12057;52.042;6.830;2022-09-21T23:26:49;8.40;99.90
23755;DHT22;12057;52.042;6.830;2022-09-21T23:31:52;8.40;99.90
23755;DHT22;12057;52.042;6.830;2022-09-21T23:36:53;8.40;99.90
23755;DHT22;12057;52.042;6.830;2022-09-21T23:41:53;8.30;99.90
23755;DHT22;12057;52.042;6.830;2022-09-21T23:46:54;8.20;99.90
23755;DHT22;12057;52.042;6.830;2022-09-21T23:51:55;8.20;99.90
23755;DHT22;12057;52.042;6.830;2022-09-21T23:56:55;8.50;99.90
